Terminal Aerodrome Forecast
Issued by NWS Mt. Holly, NJ

Home | Current Version | Previous Version | Text Only | Print | Product List | Glossary On
Versions: 1 2 3 4 5 6 7 8 9 10 11 12 13 14 15 16 17 18 19 20 21 22 23
568
FTUS41 KPHI 110207 AAA
TAFRDG
TAF AMD
KRDG 110207Z 1102/1124 28010KT P6SM SCT045 BKN080
      TEMPO 1104/1108 -SHSN OVC045
     FM111000 28010KT P6SM SCT045
     FM111400 29016G28KT P6SM BKN045
     FM112300 29010G20KT P6SM SCT045=

USA.gov is the U.S. government's official web portal to all federal, state and local government web resources and services.